Nissos Mykonos — SYJZ — position and weather

sailwx.info

Track history (hours):
 
Tides and Currents Weather Stations Pressure Air Temp Water Temp Dewpoint Dewpoint Depression Visibility Wind Speed Wind Dir Waves Ship Positions

Nissos Mykonos

Last reported at 2014-Sep-17 10:09 UTC. Time now 2014-Sep-18 05:43 UTC.
Position N 37°30' E 025°18'.

Length 141 m; draft 5.6 m.

Type: Passenger vessel. MMSI: 240389000.

Date/timePositionNaut miles runAvg speedWind from/ knotsBaromVisibWave heightAir tempDewpointWater temp
2014-Sep-17 10:09N 37°30' E 025°18'4 6.8
2014-Sep-17 09:33N 37°27' E 025°14'1413.5
2014-Sep-17 08:33N 37°29' E 024°57'6722.3
2014-Sep-17 05:33N 37°51' E 023°37'5 5.4
2014-Sep-17 04:33N 37°57' E 023°38'0 0.0
2014-Sep-17 03:31N 37°57' E 023°38'1 1.5
2014-Sep-17 02:33N 37°56' E 023°36'2 2.4
2014-Sep-17 01:32N 37°58' E 023°34'0 0.0
2014-Sep-17 00:32N 37°58' E 023°34'0 0.0
2014-Sep-16 23:33N 37°58' E 023°34'0 0.0
2014-Sep-16 22:31N 37°58' E 023°34'0 0.0
2014-Sep-16 21:31N 37°58' E 023°34'0 0.0
2014-Sep-16 20:32N 37°58' E 023°34'0 0.0
2014-Sep-16 19:33N 37°58' E 023°34'0 0.0
2014-Sep-16 18:33N 37°58' E 023°34'0 0.0
2014-Sep-16 17:31N 37°58' E 023°34'0 0.0
2014-Sep-16 16:32N 37°58' E 023°34'0 0.0
2014-Sep-16 15:32N 37°58' E 023°34'0 0.0
2014-Sep-16 14:33N 37°58' E 023°34'0 0.0
2014-Sep-16 13:31N 37°58' E 023°34'0 0.0
2014-Sep-16 12:31N 37°58' E 023°34'0 0.0
2014-Sep-16 11:32N 37°58' E 023°34'0 0.0
2014-Sep-16 10:33N 37°58' E 023°34'0 0.0
2014-Sep-16 09:33N 37°58' E 023°34'0 0.0
2014-Sep-16 08:31N 37°58' E 023°34'0 0.0
2014-Sep-16 07:32N 37°58' E 023°34'0 0.0
2014-Sep-16 06:29N 37°58' E 023°34'0 0.0
2014-Sep-16 05:33N 37°58' E 023°34'0 0.0
2014-Sep-16 04:31N 37°58' E 023°34'0 0.0
2014-Sep-16 03:31N 37°58' E 023°34'0 0.0
2014-Sep-16 02:32N 37°58' E 023°34'0 0.0
2014-Sep-16 01:33N 37°58' E 023°34'0 0.0
2014-Sep-16 00:33N 37°58' E 023°34'4 3.8
2014-Sep-15 23:33N 37°57' E 023°38'0 0.0
2014-Sep-15 22:33N 37°57' E 023°38'4419.0
2014-Sep-15 20:15N 37°31' E 024°23'1924.4
2014-Sep-15 19:29N 37°31' E 024°47'1010.0
2014-Sep-15 18:31N 37°26' E 024°57'1818.3
2014-Sep-15 17:33N 37°28' E 025°19'2518.5
2014-Sep-15 16:14N 37°36' E 025°49'1724.0
2014-Sep-15 15:30N 37°39' E 026°10'1916.1
2014-Sep-15 14:18N 37°46' E 026°33'7 7.8
2014-Sep-15 13:28N 37°48' E 026°41'2123.6
2014-Sep-15 12:33N 37°40' E 026°15'3918.1
2014-Sep-15 10:25N 37°33' E 025°28'910.3
2014-Sep-15 09:33N 37°27' E 025°19'1815.3
2014-Sep-15 08:23N 37°30' E 024°57'2124.1
2014-Sep-15 07:32N 37°31' E 024°31'4522.7
2014-Sep-15 05:34N 37°48' E 023°38'9 8.7
2014-Sep-15 04:33N 37°57' E 023°38'0 0.0
2014-Sep-15 03:33N 37°57' E 023°38'0 0.0
2014-Sep-15 02:33N 37°57' E 023°38'0 0.0
2014-Sep-15 01:33N 37°57' E 023°38'0 0.0
2014-Sep-15 00:33N 37°57' E 023°38'0 0.0
2014-Sep-14 23:33N 37°57' E 023°38'0 0.0
2014-Sep-14 22:33N 37°57' E 023°38'4418.9
2014-Sep-14 20:15N 37°31' E 024°23'1924.6
2014-Sep-14 19:29N 37°31' E 024°47'1010.5
2014-Sep-14 18:33N 37°26' E 024°58'1716.8
2014-Sep-14 17:31N 37°28' E 025°19'2020.8
2014-Sep-14 16:33N 37°40' E 025°39'2617.9
2014-Sep-14 15:05N 37°39' E 026°12'1323.7
2014-Sep-14 14:33N 37°44' E 026°27'1210.4
2014-Sep-14 13:26N 37°48' E 026°41'2225.0
2014-Sep-14 12:33N 37°40' E 026°15'1211.7
2014-Sep-14 11:33N 37°39' E 026°01'2424.4
2014-Sep-14 10:33N 37°35' E 025°30'1211.6
2014-Sep-14 09:33N 37°28' E 025°19'1815.8
2014-Sep-14 08:25N 37°30' E 024°57'2123.6
2014-Sep-14 07:32N 37°31' E 024°31'4522.7
2014-Sep-14 05:33N 37°48' E 023°38'4 0.4
2014-Sep-13 19:33N 37°52' E 023°39'5223.0
2014-Sep-13 17:18N 37°31' E 024°39'1520.5
2014-Sep-13 16:33N 37°26' E 024°57'1313.4
2014-Sep-13 15:33N 37°28' E 025°14'1312.8
2014-Sep-13 14:33N 37°32' E 025°29'2424.0
2014-Sep-13 13:33N 37°37' E 025°59'22 7.5
2014-Sep-13 10:33N 37°36' E 025°30'1312.6
2014-Sep-13 09:33N 37°27' E 025°18'1716.4
2014-Sep-13 08:32N 37°27' E 024°57'2121.7
2014-Sep-13 07:33N 37°31' E 024°31'4522.5
2014-Sep-13 05:33N 37°48' E 023°38'9 8.7
2014-Sep-13 04:33N 37°57' E 023°38'0 0.0
2014-Sep-13 03:33N 37°57' E 023°38'0 0.0
2014-Sep-13 02:33N 37°57' E 023°38'0 0.0
2014-Sep-12 23:33N 37°57' E 023°38'0 0.0
2014-Sep-12 22:33N 37°57' E 023°38'4418.8
2014-Sep-12 20:14N 37°31' E 024°23'1725.0
2014-Sep-12 19:33N 37°31' E 024°44'1412.2
2014-Sep-12 18:24N 37°27' E 025°01'1416.9
2014-Sep-12 17:33N 37°28' E 025°19'2120.7
2014-Sep-12 16:33N 37°35' E 025°44'2318.4
2014-Sep-12 15:17N 37°39' E 026°13'1723.9
2014-Sep-12 14:33N 37°46' E 026°33'7 6.2
2014-Sep-12 13:29N 37°48' E 026°41'3216.2
2014-Sep-12 11:31N 37°39' E 026°03'2424.9
2014-Sep-12 10:33N 37°33' E 025°33'1313.0
2014-Sep-12 09:33N 37°28' E 025°18'1716.5
2014-Sep-12 08:33N 37°27' E 024°57'2221.8
2014-Sep-12 07:33N 37°31' E 024°30'3224.2
2014-Sep-12 06:15N 37°36' E 023°51'1623.8
2014-Sep-12 05:34N 37°48' E 023°38'8 8.2
2014-Sep-12 04:33N 37°57' E 023°38'0 0.0
2014-Sep-12 03:33N 37°57' E 023°38'0 0.0
2014-Sep-12 02:33N 37°57' E 023°38'0 0.0
2014-Sep-12 01:33N 37°57' E 023°38'0 0.0
2014-Sep-12 00:33N 37°57' E 023°38'0 0.0
2014-Sep-11 23:33N 37°57' E 023°38'0 0.0
2014-Sep-11 22:33N 37°57' E 023°38'4318.8
2014-Sep-11 20:17N 37°31' E 024°22'1824.9
2014-Sep-11 19:33N 37°31' E 024°44'1110.9
2014-Sep-11 18:33N 37°26' E 024°57'1818.1
2014-Sep-11 17:33N 37°28' E 025°19'1717.0
2014-Sep-11 16:32N 37°34' E 025°40'2424.2
2014-Sep-11 15:32N 37°39' E 026°10'1413.9
2014-Sep-11 14:32N 37°44' E 026°26'11 9.3
2014-Sep-11 13:21N 37°48' E 026°39'3016.8
2014-Sep-11 11:32N 37°39' E 026°02'2525.0
2014-Sep-11 10:33N 37°33' E 025°32'1211.7
2014-Sep-11 09:33N 37°27' E 025°19'1716.5
2014-Sep-11 08:32N 37°27' E 024°57'2321.9
2014-Sep-11 07:28N 37°31' E 024°28'4322.8
2014-Sep-11 05:33N 37°49' E 023°38'8 1.3
2014-Sep-10 23:18N 37°57' E 023°38'0 0.0
2014-Sep-10 22:34N 37°57' E 023°38'4518.6
2014-Sep-10 20:08N 37°32' E 024°26'1424.6
2014-Sep-10 19:33N 37°32' E 024°44'1414.2
2014-Sep-10 18:33N 37°27' E 025°01'1514.6
2014-Sep-10 17:33N 37°30' E 025°19'4418.8
2014-Sep-10 15:12N 37°39' E 026°13'1624.2
2014-Sep-10 14:32N 37°46' E 026°32'5212.9
2014-Sep-10 10:29N 37°36' E 025°27'1112.3
2014-Sep-10 09:33N 37°27' E 025°18'1614.8
2014-Sep-10 08:27N 37°29' E 024°57'6622.6
2014-Sep-10 05:33N 37°48' E 023°38'8 8.2
2014-Sep-10 04:33N 37°57' E 023°38'0 0.0
2014-Sep-10 03:33N 37°57' E 023°38'0 0.0
2014-Sep-10 02:33N 37°57' E 023°38'0 0.0
2014-Sep-10 01:33N 37°57' E 023°38'0 0.0
2014-Sep-10 00:33N 37°57' E 023°38'0 0.0
2014-Sep-09 23:34N 37°57' E 023°38'0 0.0
2014-Sep-09 22:33N 37°57' E 023°38'0 0.0
2014-Sep-09 21:33N 37°57' E 023°38'0 0.0
2014-Sep-09 20:34N 37°57' E 023°38'6 5.5
2014-Sep-09 19:33N 37°51' E 023°39'4722.7
2014-Sep-09 17:28N 37°32' E 024°34'1920.1
2014-Sep-09 16:32N 37°26' E 024°57'1414.8
2014-Sep-09 15:33N 37°28' E 025°15'1312.8
2014-Sep-09 14:33N 37°32' E 025°30'2924.4
2014-Sep-09 13:23N 37°31' E 026°06'1110.0
2014-Sep-09 12:18N 37°37' E 026°18'2320.5
2014-Sep-09 11:10N 37°32' E 025°49'1723.2
2014-Sep-09 10:28N 37°33' E 025°29'1010.6
2014-Sep-09 09:33N 37°27' E 025°19'1817.8
2014-Sep-09 08:33N 37°26' E 024°57'2821.0
2014-Sep-09 07:12N 37°31' E 024°22'3923.2
2014-Sep-09 05:33N 37°48' E 023°38'8 8.6
2014-Sep-09 04:33N 37°57' E 023°38'0 0.0
2014-Sep-09 03:33N 37°57' E 023°38'0 0.0
2014-Sep-09 02:33N 37°57' E 023°38'0 0.0
2014-Sep-09 01:33N 37°57' E 023°38'0 0.0
2014-Sep-09 00:33N 37°57' E 023°38'0 0.0
2014-Sep-08 23:33N 37°57' E 023°38'0 0.0
2014-Sep-08 22:33N 37°57' E 023°38'1615.7
2014-Sep-08 21:33N 37°42' E 023°45'3224.3
2014-Sep-08 20:14N 37°31' E 024°23'1724.9
2014-Sep-08 19:34N 37°31' E 024°44'1110.9
2014-Sep-08 18:33N 37°26' E 024°57'1818.2
2014-Sep-08 17:33N 37°28' E 025°19'9 1.3
2014-Sep-08 10:28N 37°33' E 025°29'910.1
2014-Sep-08 09:33N 37°28' E 025°19'1815.3
2014-Sep-08 08:23N 37°30' E 024°57'2724.1
2014-Sep-08 07:16N 37°31' E 024°23'2724.5
2014-Sep-08 06:09N 37°38' E 023°49'1423.0
2014-Sep-08 05:33N 37°48' E 023°38'8 1.2
2014-Sep-07 22:28N 37°57' E 023°38'1617.1
2014-Sep-07 21:33N 37°42' E 023°45'2824.1
2014-Sep-07 20:24N 37°31' E 024°17'2125.1
2014-Sep-07 19:33N 37°31' E 024°44'1512.2
2014-Sep-07 18:22N 37°27' E 025°01'1417.7
2014-Sep-07 17:33N 37°28' E 025°19'11 1.6
2014-Sep-07 10:33N 37°33' E 025°32'  
Track history (hours):
 
Tides and Currents Weather Stations Pressure Air Temp Water Temp Dewpoint Dewpoint Depression Visibility Wind Speed Wind Dir Waves Ship Positions

Nissos Mykonos

Last reported at 2014-Sep-17 10:09 UTC. Time now 2014-Sep-18 05:43 UTC.
Position N 37°30' E 025°18'.

Length 141 m; draft 5.6 m.

Type: Passenger vessel. MMSI: 240389000.

Date/timePositionNaut miles runAvg speedWind from/ knotsBaromVisibWave heightAir tempDewpointWater temp
2014-Sep-17 10:09N 37°30' E 025°18'4 6.8
2014-Sep-17 09:33N 37°27' E 025°14'1413.5
2014-Sep-17 08:33N 37°29' E 024°57'6722.3
2014-Sep-17 05:33N 37°51' E 023°37'5 5.4
2014-Sep-17 04:33N 37°57' E 023°38'0 0.0
2014-Sep-17 03:31N 37°57' E 023°38'1 1.5
2014-Sep-17 02:33N 37°56' E 023°36'2 2.4
2014-Sep-17 01:32N 37°58' E 023°34'0 0.0
2014-Sep-17 00:32N 37°58' E 023°34'0 0.0
2014-Sep-16 23:33N 37°58' E 023°34'0 0.0
2014-Sep-16 22:31N 37°58' E 023°34'0 0.0
2014-Sep-16 21:31N 37°58' E 023°34'0 0.0
2014-Sep-16 20:32N 37°58' E 023°34'0 0.0
2014-Sep-16 19:33N 37°58' E 023°34'0 0.0
2014-Sep-16 18:33N 37°58' E 023°34'0 0.0
2014-Sep-16 17:31N 37°58' E 023°34'0 0.0
2014-Sep-16 16:32N 37°58' E 023°34'0 0.0
2014-Sep-16 15:32N 37°58' E 023°34'0 0.0
2014-Sep-16 14:33N 37°58' E 023°34'0 0.0
2014-Sep-16 13:31N 37°58' E 023°34'0 0.0
2014-Sep-16 12:31N 37°58' E 023°34'0 0.0
2014-Sep-16 11:32N 37°58' E 023°34'0 0.0
2014-Sep-16 10:33N 37°58' E 023°34'0 0.0
2014-Sep-16 09:33N 37°58' E 023°34'0 0.0
2014-Sep-16 08:31N 37°58' E 023°34'0 0.0
2014-Sep-16 07:32N 37°58' E 023°34'0 0.0
2014-Sep-16 06:29N 37°58' E 023°34'0 0.0
2014-Sep-16 05:33N 37°58' E 023°34'0 0.0
2014-Sep-16 04:31N 37°58' E 023°34'0 0.0
2014-Sep-16 03:31N 37°58' E 023°34'0 0.0
2014-Sep-16 02:32N 37°58' E 023°34'0 0.0
2014-Sep-16 01:33N 37°58' E 023°34'0 0.0
2014-Sep-16 00:33N 37°58' E 023°34'4 3.8
2014-Sep-15 23:33N 37°57' E 023°38'0 0.0
2014-Sep-15 22:33N 37°57' E 023°38'4419.0
2014-Sep-15 20:15N 37°31' E 024°23'1924.4
2014-Sep-15 19:29N 37°31' E 024°47'1010.0
2014-Sep-15 18:31N 37°26' E 024°57'1818.3
2014-Sep-15 17:33N 37°28' E 025°19'2518.5
2014-Sep-15 16:14N 37°36' E 025°49'1724.0
2014-Sep-15 15:30N 37°39' E 026°10'1916.1
2014-Sep-15 14:18N 37°46' E 026°33'7 7.8
2014-Sep-15 13:28N 37°48' E 026°41'2123.6
2014-Sep-15 12:33N 37°40' E 026°15'3918.1
2014-Sep-15 10:25N 37°33' E 025°28'910.3
2014-Sep-15 09:33N 37°27' E 025°19'1815.3
2014-Sep-15 08:23N 37°30' E 024°57'2124.1
2014-Sep-15 07:32N 37°31' E 024°31'4522.7
2014-Sep-15 05:34N 37°48' E 023°38'9 8.7
2014-Sep-15 04:33N 37°57' E 023°38'0 0.0
2014-Sep-15 03:33N 37°57' E 023°38'0 0.0
2014-Sep-15 02:33N 37°57' E 023°38'0 0.0
2014-Sep-15 01:33N 37°57' E 023°38'0 0.0
2014-Sep-15 00:33N 37°57' E 023°38'0 0.0
2014-Sep-14 23:33N 37°57' E 023°38'0 0.0
2014-Sep-14 22:33N 37°57' E 023°38'4418.9
2014-Sep-14 20:15N 37°31' E 024°23'1924.6
2014-Sep-14 19:29N 37°31' E 024°47'1010.5
2014-Sep-14 18:33N 37°26' E 024°58'1716.8
2014-Sep-14 17:31N 37°28' E 025°19'2020.8
2014-Sep-14 16:33N 37°40' E 025°39'2617.9
2014-Sep-14 15:05N 37°39' E 026°12'1323.7
2014-Sep-14 14:33N 37°44' E 026°27'1210.4
2014-Sep-14 13:26N 37°48' E 026°41'2225.0
2014-Sep-14 12:33N 37°40' E 026°15'1211.7
2014-Sep-14 11:33N 37°39' E 026°01'2424.4
2014-Sep-14 10:33N 37°35' E 025°30'1211.6
2014-Sep-14 09:33N 37°28' E 025°19'1815.8
2014-Sep-14 08:25N 37°30' E 024°57'2123.6
2014-Sep-14 07:32N 37°31' E 024°31'4522.7
2014-Sep-14 05:33N 37°48' E 023°38'4 0.4
2014-Sep-13 19:33N 37°52' E 023°39'5223.0
2014-Sep-13 17:18N 37°31' E 024°39'1520.5
2014-Sep-13 16:33N 37°26' E 024°57'1313.4
2014-Sep-13 15:33N 37°28' E 025°14'1312.8
2014-Sep-13 14:33N 37°32' E 025°29'2424.0
2014-Sep-13 13:33N 37°37' E 025°59'22 7.5
2014-Sep-13 10:33N 37°36' E 025°30'1312.6
2014-Sep-13 09:33N 37°27' E 025°18'1716.4
2014-Sep-13 08:32N 37°27' E 024°57'2121.7
2014-Sep-13 07:33N 37°31' E 024°31'4522.5
2014-Sep-13 05:33N 37°48' E 023°38'9 8.7
2014-Sep-13 04:33N 37°57' E 023°38'0 0.0
2014-Sep-13 03:33N 37°57' E 023°38'0 0.0
2014-Sep-13 02:33N 37°57' E 023°38'0 0.0
2014-Sep-12 23:33N 37°57' E 023°38'0 0.0
2014-Sep-12 22:33N 37°57' E 023°38'4418.8
2014-Sep-12 20:14N 37°31' E 024°23'1725.0
2014-Sep-12 19:33N 37°31' E 024°44'1412.2
2014-Sep-12 18:24N 37°27' E 025°01'1416.9
2014-Sep-12 17:33N 37°28' E 025°19'2120.7
2014-Sep-12 16:33N 37°35' E 025°44'2318.4
2014-Sep-12 15:17N 37°39' E 026°13'1723.9
2014-Sep-12 14:33N 37°46' E 026°33'7 6.2
2014-Sep-12 13:29N 37°48' E 026°41'3216.2
2014-Sep-12 11:31N 37°39' E 026°03'2424.9
2014-Sep-12 10:33N 37°33' E 025°33'1313.0
2014-Sep-12 09:33N 37°28' E 025°18'1716.5
2014-Sep-12 08:33N 37°27' E 024°57'2221.8
2014-Sep-12 07:33N 37°31' E 024°30'3224.2
2014-Sep-12 06:15N 37°36' E 023°51'1623.8
2014-Sep-12 05:34N 37°48' E 023°38'8 8.2
2014-Sep-12 04:33N 37°57' E 023°38'0 0.0
2014-Sep-12 03:33N 37°57' E 023°38'0 0.0
2014-Sep-12 02:33N 37°57' E 023°38'0 0.0
2014-Sep-12 01:33N 37°57' E 023°38'0 0.0
2014-Sep-12 00:33N 37°57' E 023°38'0 0.0
2014-Sep-11 23:33N 37°57' E 023°38'0 0.0
2014-Sep-11 22:33N 37°57' E 023°38'4318.8
2014-Sep-11 20:17N 37°31' E 024°22'1824.9
2014-Sep-11 19:33N 37°31' E 024°44'1110.9
2014-Sep-11 18:33N 37°26' E 024°57'1818.1
2014-Sep-11 17:33N 37°28' E 025°19'1717.0
2014-Sep-11 16:32N 37°34' E 025°40'2424.2
2014-Sep-11 15:32N 37°39' E 026°10'1413.9
2014-Sep-11 14:32N 37°44' E 026°26'11 9.3
2014-Sep-11 13:21N 37°48' E 026°39'3016.8
2014-Sep-11 11:32N 37°39' E 026°02'2525.0
2014-Sep-11 10:33N 37°33' E 025°32'1211.7
2014-Sep-11 09:33N 37°27' E 025°19'1716.5
2014-Sep-11 08:32N 37°27' E 024°57'2321.9
2014-Sep-11 07:28N 37°31' E 024°28'4322.8
2014-Sep-11 05:33N 37°49' E 023°38'8 1.3
2014-Sep-10 23:18N 37°57' E 023°38'0 0.0
2014-Sep-10 22:34N 37°57' E 023°38'4518.6
2014-Sep-10 20:08N 37°32' E 024°26'1424.6
2014-Sep-10 19:33N 37°32' E 024°44'1414.2
2014-Sep-10 18:33N 37°27' E 025°01'1514.6
2014-Sep-10 17:33N 37°30' E 025°19'4418.8
2014-Sep-10 15:12N 37°39' E 026°13'1624.2
2014-Sep-10 14:32N 37°46' E 026°32'5212.9
2014-Sep-10 10:29N 37°36' E 025°27'1112.3
2014-Sep-10 09:33N 37°27' E 025°18'1614.8
2014-Sep-10 08:27N 37°29' E 024°57'6622.6
2014-Sep-10 05:33N 37°48' E 023°38'8 8.2
2014-Sep-10 04:33N 37°57' E 023°38'0 0.0
2014-Sep-10 03:33N 37°57' E 023°38'0 0.0
2014-Sep-10 02:33N 37°57' E 023°38'0 0.0
2014-Sep-10 01:33N 37°57' E 023°38'0 0.0
2014-Sep-10 00:33N 37°57' E 023°38'0 0.0
2014-Sep-09 23:34N 37°57' E 023°38'0 0.0
2014-Sep-09 22:33N 37°57' E 023°38'0 0.0
2014-Sep-09 21:33N 37°57' E 023°38'0 0.0
2014-Sep-09 20:34N 37°57' E 023°38'6 5.5
2014-Sep-09 19:33N 37°51' E 023°39'4722.7
2014-Sep-09 17:28N 37°32' E 024°34'1920.1
2014-Sep-09 16:32N 37°26' E 024°57'1414.8
2014-Sep-09 15:33N 37°28' E 025°15'1312.8
2014-Sep-09 14:33N 37°32' E 025°30'2924.4
2014-Sep-09 13:23N 37°31' E 026°06'1110.0
2014-Sep-09 12:18N 37°37' E 026°18'2320.5
2014-Sep-09 11:10N 37°32' E 025°49'1723.2
2014-Sep-09 10:28N 37°33' E 025°29'1010.6
2014-Sep-09 09:33N 37°27' E 025°19'1817.8
2014-Sep-09 08:33N 37°26' E 024°57'2821.0
2014-Sep-09 07:12N 37°31' E 024°22'3923.2
2014-Sep-09 05:33N 37°48' E 023°38'8 8.6
2014-Sep-09 04:33N 37°57' E 023°38'0 0.0
2014-Sep-09 03:33N 37°57' E 023°38'0 0.0
2014-Sep-09 02:33N 37°57' E 023°38'0 0.0
2014-Sep-09 01:33N 37°57' E 023°38'0 0.0
2014-Sep-09 00:33N 37°57' E 023°38'0 0.0
2014-Sep-08 23:33N 37°57' E 023°38'0 0.0
2014-Sep-08 22:33N 37°57' E 023°38'1615.7
2014-Sep-08 21:33N 37°42' E 023°45'3224.3
2014-Sep-08 20:14N 37°31' E 024°23'1724.9
2014-Sep-08 19:34N 37°31' E 024°44'1110.9
2014-Sep-08 18:33N 37°26' E 024°57'1818.2
2014-Sep-08 17:33N 37°28' E 025°19'9 1.3
2014-Sep-08 10:28N 37°33' E 025°29'910.1
2014-Sep-08 09:33N 37°28' E 025°19'1815.3
2014-Sep-08 08:23N 37°30' E 024°57'2724.1
2014-Sep-08 07:16N 37°31' E 024°23'2724.5
2014-Sep-08 06:09N 37°38' E 023°49'1423.0
2014-Sep-08 05:33N 37°48' E 023°38'8 1.2
2014-Sep-07 22:28N 37°57' E 023°38'1617.1
2014-Sep-07 21:33N 37°42' E 023°45'2824.1
2014-Sep-07 20:24N 37°31' E 024°17'2125.1
2014-Sep-07 19:33N 37°31' E 024°44'1512.2
2014-Sep-07 18:22N 37°27' E 025°01'1417.7
2014-Sep-07 17:33N 37°28' E 025°19'11 1.6
2014-Sep-07 10:33N 37°33' E 025°32'  

Dump ship's entire track history